sensor_id;sensor_type;location;lat;lon;timestamp;pressure;altitude;pressure_sealevel;temperature;humidity
28456;BME280;15682;56.742;38.866;2022-11-14T00:00:32;99780.0;;;1.3;83.6
28456;BME280;15682;56.742;38.866;2022-11-14T00:02:32;99780.0;;;1.3;82.8
28456;BME280;15682;56.742;38.866;2022-11-14T00:04:32;99780.0;;;1.3;82.8
28456;BME280;15682;56.742;38.866;2022-11-14T00:06:32;99780.0;;;1.3;82.8
28456;BME280;15682;56.742;38.866;2022-11-14T00:08:32;99780.0;;;1.3;82.3
28456;BME280;15682;56.742;38.866;2022-11-14T00:10:32;99780.0;;;1.3;82.3
28456;BME280;15682;56.742;38.866;2022-11-14T00:12:32;99780.0;;;1.3;82.3
28456;BME280;15682;56.742;38.866;2022-11-14T00:14:32;99780.0;;;1.3;82.2
28456;BME280;15682;56.742;38.866;2022-11-14T00:16:32;99780.0;;;1.3;81.5
28456;BME280;15682;56.742;38.866;2022-11-14T00:18:31;99790.0;;;1.6;81.3
28456;BME280;15682;56.742;38.866;2022-11-14T00:20:32;99790.0;;;1.4;82.1
28456;BME280;15682;56.742;38.866;2022-11-14T00:22:31;99790.0;;;1.3;81.8
28456;BME280;15682;56.742;38.866;2022-11-14T00:24:31;99800.0;;;1.3;82.5
28456;BME280;15682;56.742;38.866;2022-11-14T00:26:31;99800.0;;;1.2;83.2
28456;BME280;15682;56.742;38.866;2022-11-14T00:28:31;99800.0;;;1.2;82.3
28456;BME280;15682;56.742;38.866;2022-11-14T00:30:31;99810.0;;;1.3;83.1
28456;BME280;15682;56.742;38.866;2022-11-14T00:32:31;99810.0;;;1.2;82.9
28456;BME280;15682;56.742;38.866;2022-11-14T00:34:31;99810.0;;;1.2;82.9
28456;BME280;15682;56.742;38.866;2022-11-14T00:36:31;99810.0;;;1.2;82.9
28456;BME280;15682;56.742;38.866;2022-11-14T00:38:31;99810.0;;;1.2;83.5
28456;BME280;15682;56.742;38.866;2022-11-14T00:40:31;99810.0;;;1.2;82.9
28456;BME280;15682;56.742;38.866;2022-11-14T00:42:31;99810.0;;;1.2;83.5
28456;BME280;15682;56.742;38.866;2022-11-14T00:44:31;99810.0;;;1.2;83.3
28456;BME280;15682;56.742;38.866;2022-11-14T00:46:31;99810.0;;;1.2;82.4
28456;BME280;15682;56.742;38.866;2022-11-14T00:48:31;99820.0;;;1.3;82.4
28456;BME280;15682;56.742;38.866;2022-11-14T00:50:31;99820.0;;;1.1;82.4
28456;BME280;15682;56.742;38.866;2022-11-14T00:52:31;99820.0;;;1.1;82.9
28456;BME280;15682;56.742;38.866;2022-11-14T00:54:30;99820.0;;;1.2;83.6
28456;BME280;15682;56.742;38.866;2022-11-14T00:56:30;99820.0;;;1.2;83.0
28456;BME280;15682;56.742;38.866;2022-11-14T00:58:30;99820.0;;;1.2;83.5
28456;BME280;15682;56.742;38.866;2022-11-14T01:00:30;99830.0;;;1.2;83.5
28456;BME280;15682;56.742;38.866;2022-11-14T01:02:30;99830.0;;;1.2;82.8
28456;BME280;15682;56.742;38.866;2022-11-14T01:04:30;99830.0;;;1.2;82.2
28456;BME280;15682;56.742;38.866;2022-11-14T01:06:30;99830.0;;;1.2;83.3
28456;BME280;15682;56.742;38.866;2022-11-14T01:08:30;99840.0;;;1.2;83.3
28456;BME280;15682;56.742;38.866;2022-11-14T01:10:30;99840.0;;;1.1;83.3
28456;BME280;15682;56.742;38.866;2022-11-14T01:12:30;99840.0;;;1.1;83.3
28456;BME280;15682;56.742;38.866;2022-11-14T01:14:30;99840.0;;;1.2;83.3
28456;BME280;15682;56.742;38.866;2022-11-14T01:16:30;99850.0;;;1.2;83.3
28456;BME280;15682;56.742;38.866;2022-11-14T01:18:30;99850.0;;;1.1;83.7
28456;BME280;15682;56.742;38.866;2022-11-14T01:20:30;99850.0;;;1.3;82.2
28456;BME280;15682;56.742;38.866;2022-11-14T01:22:30;99860.0;;;1.3;80.3
28456;BME280;15682;56.742;38.866;2022-11-14T01:24:31;99860.0;;;1.2;77.3
28456;BME280;15682;56.742;38.866;2022-11-14T01:26:30;99860.0;;;1.2;78.0
28456;BME280;15682;56.742;38.866;2022-11-14T01:28:30;99860.0;;;1.2;78.9
28456;BME280;15682;56.742;38.866;2022-11-14T01:30:30;99870.0;;;1.2;78.3
28456;BME280;15682;56.742;38.866;2022-11-14T01:32:30;99870.0;;;1.2;78.3
28456;BME280;15682;56.742;38.866;2022-11-14T01:34:30;99870.0;;;1.2;78.3
28456;BME280;15682;56.742;38.866;2022-11-14T01:36:29;99880.0;;;1.2;78.3
28456;BME280;15682;56.742;38.866;2022-11-14T01:38:29;99880.0;;;1.2;77.1
28456;BME280;15682;56.742;38.866;2022-11-14T01:40:30;99880.0;;;1.2;76.1
28456;BME280;15682;56.742;38.866;2022-11-14T01:42:29;99880.0;;;1.1;75.4
28456;BME280;15682;56.742;38.866;2022-11-14T01:44:43;99880.0;;;1.1;74.5
28456;BME280;15682;56.742;38.866;2022-11-14T01:46:31;99880.0;;;1.2;76.8
28456;BME280;15682;56.742;38.866;2022-11-14T01:48:34;99890.0;;;1.1;74.5
28456;BME280;15682;56.742;38.866;2022-11-14T01:50:29;99900.0;;;1.1;75.5
28456;BME280;15682;56.742;38.866;2022-11-14T01:52:32;99900.0;;;0.9;73.1
28456;BME280;15682;56.742;38.866;2022-11-14T01:54:33;99910.0;;;0.9;71.2
28456;BME280;15682;56.742;38.866;2022-11-14T01:56:32;99910.0;;;0.9;70.5
28456;BME280;15682;56.742;38.866;2022-11-14T01:58:29;99910.0;;;1.1;70.6
28456;BME280;15682;56.742;38.866;2022-11-14T02:00:29;99910.0;;;0.9;71.6
28456;BME280;15682;56.742;38.866;2022-11-14T02:02:29;99920.0;;;0.9;72.5
28456;BME280;15682;56.742;38.866;2022-11-14T02:04:32;99920.0;;;0.9;71.6
28456;BME280;15682;56.742;38.866;2022-11-14T02:06:30;99920.0;;;0.9;72.5
28456;BME280;15682;56.742;38.866;2022-11-14T02:08:29;99920.0;;;0.8;71.1
28456;BME280;15682;56.742;38.866;2022-11-14T02:10:28;99920.0;;;0.8;71.1
28456;BME280;15682;56.742;38.866;2022-11-14T02:12:28;99920.0;;;0.8;71.7
28456;BME280;15682;56.742;38.866;2022-11-14T02:14:29;99930.0;;;1.0;70.7
28456;BME280;15682;56.742;38.866;2022-11-14T02:16:28;99920.0;;;1.0;70.3
28456;BME280;15682;56.742;38.866;2022-11-14T02:18:28;99920.0;;;1.1;71.0
28456;BME280;15682;56.742;38.866;2022-11-14T02:20:29;99920.0;;;1.1;70.1
28456;BME280;15682;56.742;38.866;2022-11-14T02:22:28;99920.0;;;1.1;71.1
28456;BME280;15682;56.742;38.866;2022-11-14T02:24:28;99920.0;;;1.1;70.5
28456;BME280;15682;56.742;38.866;2022-11-14T02:26:28;99920.0;;;0.9;71.8
28456;BME280;15682;56.742;38.866;2022-11-14T02:28:28;99920.0;;;0.9;72.0
28456;BME280;15682;56.742;38.866;2022-11-14T02:30:28;99920.0;;;0.9;71.2
28456;BME280;15682;56.742;38.866;2022-11-14T02:32:27;99920.0;;;0.9;72.6
28456;BME280;15682;56.742;38.866;2022-11-14T02:34:28;99920.0;;;0.9;72.6
28456;BME280;15682;56.742;38.866;2022-11-14T02:36:27;99920.0;;;0.9;73.5
28456;BME280;15682;56.742;38.866;2022-11-14T02:38:27;99920.0;;;0.9;73.3
28456;BME280;15682;56.742;38.866;2022-11-14T02:40:27;99930.0;;;0.9;73.3
28456;BME280;15682;56.742;38.866;2022-11-14T02:42:27;99930.0;;;0.9;73.9
28456;BME280;15682;56.742;38.866;2022-11-14T02:44:27;99930.0;;;0.9;73.2
28456;BME280;15682;56.742;38.866;2022-11-14T02:46:27;99930.0;;;0.9;74.2
28456;BME280;15682;56.742;38.866;2022-11-14T02:48:27;99930.0;;;0.9;73.6
28456;BME280;15682;56.742;38.866;2022-11-14T02:50:27;99950.0;;;0.9;74.7
28456;BME280;15682;56.742;38.866;2022-11-14T02:52:27;99960.0;;;0.8;71.2
28456;BME280;15682;56.742;38.866;2022-11-14T02:54:27;99950.0;;;0.7;71.2
28456;BME280;15682;56.742;38.866;2022-11-14T02:56:27;99950.0;;;0.7;71.2
28456;BME280;15682;56.742;38.866;2022-11-14T02:58:27;99950.0;;;0.6;70.6
28456;BME280;15682;56.742;38.866;2022-11-14T03:00:27;99950.0;;;0.6;71.3
28456;BME280;15682;56.742;38.866;2022-11-14T03:02:27;99970.0;;;0.6;69.0
28456;BME280;15682;56.742;38.866;2022-11-14T03:04:27;99970.0;;;0.5;69.8
28456;BME280;15682;56.742;38.866;2022-11-14T03:06:26;99980.0;;;0.5;69.8
28456;BME280;15682;56.742;38.866;2022-11-14T03:08:27;99980.0;;;0.5;70.5
28456;BME280;15682;56.742;38.866;2022-11-14T03:10:26;99980.0;;;0.5;70.3
28456;BME280;15682;56.742;38.866;2022-11-14T03:12:26;99980.0;;;0.5;69.6
28456;BME280;15682;56.742;38.866;2022-11-14T03:14:29;99990.0;;;0.4;68.3
28456;BME280;15682;56.742;38.866;2022-11-14T03:16:26;100010.0;;;0.3;65.9
28456;BME280;15682;56.742;38.866;2022-11-14T03:18:26;100010.0;;;0.2;65.9
28456;BME280;15682;56.742;38.866;2022-11-14T03:20:26;100010.0;;;0.1;66.6
28456;BME280;15682;56.742;38.866;2022-11-14T03:22:27;100010.0;;;0.1;66.6
28456;BME280;15682;56.742;38.866;2022-11-14T03:24:26;100010.0;;;0.1;67.7
28456;BME280;15682;56.742;38.866;2022-11-14T03:26:26;100010.0;;;-0.1;67.7
28456;BME280;15682;56.742;38.866;2022-11-14T03:28:26;100010.0;;;-0.2;68.5
28456;BME280;15682;56.742;38.866;2022-11-14T03:30:26;100010.0;;;-0.3;67.6
28456;BME280;15682;56.742;38.866;2022-11-14T03:32:25;100040.0;;;-0.3;69.2
28456;BME280;15682;56.742;38.866;2022-11-14T03:34:25;100030.0;;;-0.4;69.2
28456;BME280;15682;56.742;38.866;2022-11-14T03:36:25;100030.0;;;-0.4;70.0
28456;BME280;15682;56.742;38.866;2022-11-14T03:38:25;100030.0;;;-0.6;70.9
28456;BME280;15682;56.742;38.866;2022-11-14T03:40:25;100040.0;;;-0.6;70.2
28456;BME280;15682;56.742;38.866;2022-11-14T03:42:25;100040.0;;;-0.6;70.4
28456;BME280;15682;56.742;38.866;2022-11-14T03:44:25;100040.0;;;-0.6;71.9
28456;BME280;15682;56.742;38.866;2022-11-14T03:46:25;100040.0;;;-0.6;71.9
28456;BME280;15682;56.742;38.866;2022-11-14T03:48:25;100040.0;;;-0.6;71.9
28456;BME280;15682;56.742;38.866;2022-11-14T03:50:25;100040.0;;;-0.6;72.2
28456;BME280;15682;56.742;38.866;2022-11-14T03:52:25;100050.0;;;-0.7;72.7
28456;BME280;15682;56.742;38.866;2022-11-14T03:54:25;100050.0;;;-0.7;72.7
28456;BME280;15682;56.742;38.866;2022-11-14T03:56:25;100050.0;;;-0.7;73.5
28456;BME280;15682;56.742;38.866;2022-11-14T03:58:24;100060.0;;;-0.7;73.5
28456;BME280;15682;56.742;38.866;2022-11-14T04:00:24;100060.0;;;-0.8;73.5
28456;BME280;15682;56.742;38.866;2022-11-14T04:02:24;100060.0;;;-0.8;73.5
28456;BME280;15682;56.742;38.866;2022-11-14T04:04:24;100060.0;;;-0.6;73.5
28456;BME280;15682;56.742;38.866;2022-11-14T04:06:24;100070.0;;;-0.8;73.5
28456;BME280;15682;56.742;38.866;2022-11-14T04:08:24;100070.0;;;-0.8;74.3
28456;BME280;15682;56.742;38.866;2022-11-14T04:10:24;100070.0;;;-0.9;74.3
28456;BME280;15682;56.742;38.866;2022-11-14T04:12:24;100070.0;;;-0.9;74.5
28456;BME280;15682;56.742;38.866;2022-11-14T04:14:24;100070.0;;;-0.9;74.5
28456;BME280;15682;56.742;38.866;2022-11-14T04:16:23;100070.0;;;-0.9;74.5
28456;BME280;15682;56.742;38.866;2022-11-14T04:18:24;100080.0;;;-0.9;75.1
28456;BME280;15682;56.742;38.866;2022-11-14T04:20:23;100080.0;;;-0.9;75.1
28456;BME280;15682;56.742;38.866;2022-11-14T04:22:23;100080.0;;;-0.9;75.1
28456;BME280;15682;56.742;38.866;2022-11-14T04:24:23;100080.0;;;-0.9;75.8
28456;BME280;15682;56.742;38.866;2022-11-14T04:26:23;100090.0;;;-0.9;75.0
28456;BME280;15682;56.742;38.866;2022-11-14T04:28:23;100090.0;;;-0.9;75.9
28456;BME280;15682;56.742;38.866;2022-11-14T04:30:23;100090.0;;;-0.9;75.5
28456;BME280;15682;56.742;38.866;2022-11-14T04:32:23;100100.0;;;-1.0;76.4
28456;BME280;15682;56.742;38.866;2022-11-14T04:34:22;100110.0;;;-1.0;75.1
28456;BME280;15682;56.742;38.866;2022-11-14T04:36:22;100110.0;;;-1.0;75.9
28456;BME280;15682;56.742;38.866;2022-11-14T04:38:22;100110.0;;;-1.0;76.3
28456;BME280;15682;56.742;38.866;2022-11-14T04:40:22;100110.0;;;-1.0;76.3
28456;BME280;15682;56.742;38.866;2022-11-14T04:42:22;100120.0;;;-1.0;76.7
28456;BME280;15682;56.742;38.866;2022-11-14T04:44:22;100120.0;;;-1.2;76.0
28456;BME280;15682;56.742;38.866;2022-11-14T04:46:22;100120.0;;;-1.0;76.0
28456;BME280;15682;56.742;38.866;2022-11-14T04:48:22;100130.0;;;-1.0;75.9
28456;BME280;15682;56.742;38.866;2022-11-14T04:50:22;100130.0;;;-1.0;75.9
28456;BME280;15682;56.742;38.866;2022-11-14T04:52:21;100130.0;;;-1.0;76.4
28456;BME280;15682;56.742;38.866;2022-11-14T04:54:21;100140.0;;;-1.0;77.1
28456;BME280;15682;56.742;38.866;2022-11-14T04:56:21;100140.0;;;-1.0;77.1
28456;BME280;15682;56.742;38.866;2022-11-14T04:58:21;100150.0;;;-1.0;77.4
28456;BME280;15682;56.742;38.866;2022-11-14T05:00:22;100160.0;;;-1.0;77.4
28456;BME280;15682;56.742;38.866;2022-11-14T05:02:21;100160.0;;;-1.2;77.4
28456;BME280;15682;56.742;38.866;2022-11-14T05:04:21;100160.0;;;-1.2;76.0
28456;BME280;15682;56.742;38.866;2022-11-14T05:06:21;100160.0;;;-1.2;77.4
28456;BME280;15682;56.742;38.866;2022-11-14T05:08:21;100170.0;;;-1.3;77.4
28456;BME280;15682;56.742;38.866;2022-11-14T05:10:20;100170.0;;;-1.3;77.4
28456;BME280;15682;56.742;38.866;2022-11-14T05:12:20;100170.0;;;-1.3;77.2
28456;BME280;15682;56.742;38.866;2022-11-14T05:14:20;100170.0;;;-1.2;77.2
28456;BME280;15682;56.742;38.866;2022-11-14T05:16:20;100180.0;;;-1.1;77.2
28456;BME280;15682;56.742;38.866;2022-11-14T05:18:20;100180.0;;;-1.2;77.2
28456;BME280;15682;56.742;38.866;2022-11-14T05:20:20;100180.0;;;-1.4;77.2
28456;BME280;15682;56.742;38.866;2022-11-14T05:22:20;100190.0;;;-1.4;77.2
28456;BME280;15682;56.742;38.866;2022-11-14T05:24:20;100190.0;;;-1.1;76.5
28456;BME280;15682;56.742;38.866;2022-11-14T05:26:20;100190.0;;;-1.1;77.1
28456;BME280;15682;56.742;38.866;2022-11-14T05:28:19;100190.0;;;-1.2;76.8
28456;BME280;15682;56.742;38.866;2022-11-14T05:30:19;100190.0;;;-1.3;76.8
28456;BME280;15682;56.742;38.866;2022-11-14T05:32:19;100200.0;;;-1.3;77.5
28456;BME280;15682;56.742;38.866;2022-11-14T05:34:19;100200.0;;;-1.3;76.8
28456;BME280;15682;56.742;38.866;2022-11-14T05:36:19;100200.0;;;-1.3;77.2
28456;BME280;15682;56.742;38.866;2022-11-14T05:38:19;100210.0;;;-1.3;76.4
28456;BME280;15682;56.742;38.866;2022-11-14T05:40:19;100210.0;;;-1.3;77.1
28456;BME280;15682;56.742;38.866;2022-11-14T05:42:19;100210.0;;;-1.3;77.1
28456;BME280;15682;56.742;38.866;2022-11-14T05:44:18;100210.0;;;-1.3;77.1
28456;BME280;15682;56.742;38.866;2022-11-14T05:46:18;100210.0;;;-1.5;76.4
28456;BME280;15682;56.742;38.866;2022-11-14T05:48:18;100210.0;;;-1.3;77.3
28456;BME280;15682;56.742;38.866;2022-11-14T05:50:18;100210.0;;;-1.3;76.5
28456;BME280;15682;56.742;38.866;2022-11-14T05:52:18;100220.0;;;-1.3;76.5
28456;BME280;15682;56.742;38.866;2022-11-14T05:54:18;100220.0;;;-1.2;77.1
28456;BME280;15682;56.742;38.866;2022-11-14T05:56:18;100220.0;;;-1.2;76.3
28456;BME280;15682;56.742;38.866;2022-11-14T05:58:18;100220.0;;;-1.3;76.3
28456;BME280;15682;56.742;38.866;2022-11-14T06:00:18;100230.0;;;-1.2;76.8
28456;BME280;15682;56.742;38.866;2022-11-14T06:02:17;100230.0;;;-1.2;76.8
28456;BME280;15682;56.742;38.866;2022-11-14T06:04:17;100240.0;;;-1.2;75.7
28456;BME280;15682;56.742;38.866;2022-11-14T06:06:19;100240.0;;;-1.2;76.3
28456;BME280;15682;56.742;38.866;2022-11-14T06:08:17;100240.0;;;-1.1;76.8
28456;BME280;15682;56.742;38.866;2022-11-14T06:10:17;100240.0;;;-1.2;76.1
28456;BME280;15682;56.742;38.866;2022-11-14T06:12:17;100240.0;;;-1.2;76.1
28456;BME280;15682;56.742;38.866;2022-11-14T06:14:17;100240.0;;;-1.1;76.9
28456;BME280;15682;56.742;38.866;2022-11-14T06:16:18;100250.0;;;-1.1;75.5
28456;BME280;15682;56.742;38.866;2022-11-14T06:18:16;100250.0;;;-1.1;75.2
28456;BME280;15682;56.742;38.866;2022-11-14T06:20:16;100250.0;;;-1.1;75.0
28456;BME280;15682;56.742;38.866;2022-11-14T06:22:16;100250.0;;;-1.0;75.6
28456;BME280;15682;56.742;38.866;2022-11-14T06:24:16;100240.0;;;-1.1;74.8
28456;BME280;15682;56.742;38.866;2022-11-14T06:26:20;100240.0;;;-1.1;75.5
28456;BME280;15682;56.742;38.866;2022-11-14T06:28:16;100240.0;;;-1.0;75.4
28456;BME280;15682;56.742;38.866;2022-11-14T06:30:16;100240.0;;;-1.0;75.4
28456;BME280;15682;56.742;38.866;2022-11-14T06:32:16;100240.0;;;-1.0;75.4
28456;BME280;15682;56.742;38.866;2022-11-14T06:34:16;100240.0;;;-1.0;75.4
28456;BME280;15682;56.742;38.866;2022-11-14T06:36:16;100240.0;;;-1.0;75.4
28456;BME280;15682;56.742;38.866;2022-11-14T06:38:15;100240.0;;;-0.9;74.9
28456;BME280;15682;56.742;38.866;2022-11-14T06:40:15;100240.0;;;-0.8;74.3
28456;BME280;15682;56.742;38.866;2022-11-14T06:42:16;100240.0;;;-0.8;74.3
28456;BME280;15682;56.742;38.866;2022-11-14T06:44:15;100240.0;;;-0.8;74.3
28456;BME280;15682;56.742;38.866;2022-11-14T06:46:17;100250.0;;;-0.7;74.8
28456;BME280;15682;56.742;38.866;2022-11-14T06:48:15;100250.0;;;-0.8;74.1
28456;BME280;15682;56.742;38.866;2022-11-14T06:50:15;100260.0;;;-0.8;74.1
28456;BME280;15682;56.742;38.866;2022-11-14T06:52:15;100260.0;;;-0.8;74.1
28456;BME280;15682;56.742;38.866;2022-11-14T06:54:15;100260.0;;;-0.8;74.7
28456;BME280;15682;56.742;38.866;2022-11-14T06:56:16;100270.0;;;-0.7;74.5
28456;BME280;15682;56.742;38.866;2022-11-14T06:58:14;100270.0;;;-0.7;74.5
28456;BME280;15682;56.742;38.866;2022-11-14T07:00:15;100270.0;;;-0.7;74.5
28456;BME280;15682;56.742;38.866;2022-11-14T07:02:14;100270.0;;;-0.7;74.5
28456;BME280;15682;56.742;38.866;2022-11-14T07:04:14;100270.0;;;-0.7;74.3
28456;BME280;15682;56.742;38.866;2022-11-14T07:06:16;100270.0;;;-0.7;73.4
28456;BME280;15682;56.742;38.866;2022-11-14T07:08:14;100270.0;;;-0.6;74.3
28456;BME280;15682;56.742;38.866;2022-11-14T07:10:14;100270.0;;;-0.6;74.3
28456;BME280;15682;56.742;38.866;2022-11-14T07:12:14;100270.0;;;-0.6;74.3
28456;BME280;15682;56.742;38.866;2022-11-14T07:14:14;100270.0;;;-0.5;74.3
28456;BME280;15682;56.742;38.866;2022-11-14T07:16:14;100280.0;;;-0.5;73.5
28456;BME280;15682;56.742;38.866;2022-11-14T07:18:14;100280.0;;;-0.4;74.3
28456;BME280;15682;56.742;38.866;2022-11-14T07:20:14;100290.0;;;-0.4;74.9
28456;BME280;15682;56.742;38.866;2022-11-14T07:22:13;100290.0;;;-0.3;74.9
28456;BME280;15682;56.742;38.866;2022-11-14T07:24:13;100290.0;;;-0.3;74.9
28456;BME280;15682;56.742;38.866;2022-11-14T07:26:13;100290.0;;;-0.2;75.4
28456;BME280;15682;56.742;38.866;2022-11-14T07:28:13;100290.0;;;-0.0;75.2
28456;BME280;15682;56.742;38.866;2022-11-14T07:30:14;100290.0;;;-0.0;74.6
28456;BME280;15682;56.742;38.866;2022-11-14T07:32:13;100290.0;;;-0.0;75.3
28456;BME280;15682;56.742;38.866;2022-11-14T07:34:13;100290.0;;;0.1;74.7
28456;BME280;15682;56.742;38.866;2022-11-14T07:36:14;100290.0;;;0.1;74.7
28456;BME280;15682;56.742;38.866;2022-11-14T07:38:13;100290.0;;;0.2;74.1
28456;BME280;15682;56.742;38.866;2022-11-14T07:40:13;100290.0;;;0.2;75.1
28456;BME280;15682;56.742;38.866;2022-11-14T07:42:13;100290.0;;;0.2;75.1
28456;BME280;15682;56.742;38.866;2022-11-14T07:44:13;100290.0;;;0.2;75.1
28456;BME280;15682;56.742;38.866;2022-11-14T07:46:14;100290.0;;;0.2;75.1
28456;BME280;15682;56.742;38.866;2022-11-14T07:48:12;100300.0;;;0.2;75.0
28456;BME280;15682;56.742;38.866;2022-11-14T07:50:12;100300.0;;;0.2;75.8
28456;BME280;15682;56.742;38.866;2022-11-14T07:52:12;100300.0;;;0.1;75.8
28456;BME280;15682;56.742;38.866;2022-11-14T07:54:12;100300.0;;;0.1;76.3
28456;BME280;15682;56.742;38.866;2022-11-14T07:56:12;100300.0;;;0.1;76.3
28456;BME280;15682;56.742;38.866;2022-11-14T07:58:12;100300.0;;;0.2;75.9
28456;BME280;15682;56.742;38.866;2022-11-14T08:00:14;100300.0;;;0.2;75.5
28456;BME280;15682;56.742;38.866;2022-11-14T08:02:13;100300.0;;;0.3;75.5
28456;BME280;15682;56.742;38.866;2022-11-14T08:04:12;100300.0;;;0.5;75.5
28456;BME280;15682;56.742;38.866;2022-11-14T08:06:13;100300.0;;;0.5;74.6
28456;BME280;15682;56.742;38.866;2022-11-14T08:08:12;100300.0;;;0.5;74.8
28456;BME280;15682;56.742;38.866;2022-11-14T08:10:12;100300.0;;;0.5;74.3
28456;BME280;15682;56.742;38.866;2022-11-14T08:12:12;100310.0;;;0.6;74.3
28456;BME280;15682;56.742;38.866;2022-11-14T08:14:12;100310.0;;;0.8;74.3
28456;BME280;15682;56.742;38.866;2022-11-14T08:16:12;100310.0;;;0.8;74.3
28456;BME280;15682;56.742;38.866;2022-11-14T08:18:12;100310.0;;;0.6;75.0
28456;BME280;15682;56.742;38.866;2022-11-14T08:20:11;100310.0;;;0.5;75.0
28456;BME280;15682;56.742;38.866;2022-11-14T08:22:11;100310.0;;;0.3;75.0
28456;BME280;15682;56.742;38.866;2022-11-14T08:24:11;100310.0;;;0.3;75.8
28456;BME280;15682;56.742;38.866;2022-11-14T08:26:11;100310.0;;;0.2;75.8
28456;BME280;15682;56.742;38.866;2022-11-14T08:28:11;100310.0;;;0.2;75.8
28456;BME280;15682;56.742;38.866;2022-11-14T08:30:12;100310.0;;;0.3;75.8
28456;BME280;15682;56.742;38.866;2022-11-14T08:32:11;100310.0;;;0.3;75.8
28456;BME280;15682;56.742;38.866;2022-11-14T08:34:11;100310.0;;;0.3;75.2
28456;BME280;15682;56.742;38.866;2022-11-14T08:36:11;100310.0;;;0.4;76.0
28456;BME280;15682;56.742;38.866;2022-11-14T08:38:11;100310.0;;;0.5;75.3
28456;BME280;15682;56.742;38.866;2022-11-14T08:40:11;100300.0;;;0.6;75.3
28456;BME280;15682;56.742;38.866;2022-11-14T08:42:11;100300.0;;;0.8;75.3
28456;BME280;15682;56.742;38.866;2022-11-14T08:44:11;100300.0;;;0.8;75.3
28456;BME280;15682;56.742;38.866;2022-11-14T08:46:11;100300.0;;;0.7;75.3
28456;BME280;15682;56.742;38.866;2022-11-14T08:48:11;100300.0;;;1.0;75.4
28456;BME280;15682;56.742;38.866;2022-11-14T08:50:11;100300.0;;;1.0;74.4
28456;BME280;15682;56.742;38.866;2022-11-14T08:52:11;100300.0;;;1.0;75.1
28456;BME280;15682;56.742;38.866;2022-11-14T08:54:11;100300.0;;;1.0;74.3
28456;BME280;15682;56.742;38.866;2022-11-14T08:56:10;100300.0;;;1.2;74.3
28456;BME280;15682;56.742;38.866;2022-11-14T08:58:10;100300.0;;;1.3;74.4
28456;BME280;15682;56.742;38.866;2022-11-14T09:00:11;100300.0;;;1.3;74.4
28456;BME280;15682;56.742;38.866;2022-11-14T09:02:11;100300.0;;;1.3;74.4
28456;BME280;15682;56.742;38.866;2022-11-14T09:04:10;100300.0;;;1.3;73.6
28456;BME280;15682;56.742;38.866;2022-11-14T09:06:10;100300.0;;;1.3;73.6
28456;BME280;15682;56.742;38.866;2022-11-14T09:08:10;100300.0;;;1.2;73.6
28456;BME280;15682;56.742;38.866;2022-11-14T09:10:10;100300.0;;;1.2;73.6
28456;BME280;15682;56.742;38.866;2022-11-14T09:12:10;100300.0;;;1.2;73.6
28456;BME280;15682;56.742;38.866;2022-11-14T09:14:10;100300.0;;;1.2;73.6
28456;BME280;15682;56.742;38.866;2022-11-14T09:16:10;100300.0;;;1.3;74.5
28456;BME280;15682;56.742;38.866;2022-11-14T09:18:11;100300.0;;;1.2;74.8
28456;BME280;15682;56.742;38.866;2022-11-14T09:20:10;100300.0;;;1.0;74.8
28456;BME280;15682;56.742;38.866;2022-11-14T09:22:10;100300.0;;;1.0;75.4
28456;BME280;15682;56.742;38.866;2022-11-14T09:24:10;100300.0;;;1.0;75.8
28456;BME280;15682;56.742;38.866;2022-11-14T09:26:10;100300.0;;;1.0;74.9
28456;BME280;15682;56.742;38.866;2022-11-14T09:28:10;100300.0;;;0.8;75.1
28456;BME280;15682;56.742;38.866;2022-11-14T09:30:11;100300.0;;;0.7;75.1
28456;BME280;15682;56.742;38.866;2022-11-14T09:32:09;100300.0;;;0.9;75.1
28456;BME280;15682;56.742;38.866;2022-11-14T09:34:09;100300.0;;;0.9;75.1
28456;BME280;15682;56.742;38.866;2022-11-14T09:36:10;100300.0;;;0.9;75.1
28456;BME280;15682;56.742;38.866;2022-11-14T09:38:10;100300.0;;;0.8;75.5
28456;BME280;15682;56.742;38.866;2022-11-14T09:40:10;100300.0;;;0.8;75.5
28456;BME280;15682;56.742;38.866;2022-11-14T09:42:18;100300.0;;;0.7;75.4
28456;BME280;15682;56.742;38.866;2022-11-14T09:44:23;100300.0;;;0.7;74.7
28456;BME280;15682;56.742;38.866;2022-11-14T09:46:17;100300.0;;;0.7;74.7
28456;BME280;15682;56.742;38.866;2022-11-14T09:48:21;100300.0;;;0.8;74.4
28456;BME280;15682;56.742;38.866;2022-11-14T09:50:12;100300.0;;;0.8;74.4
28456;BME280;15682;56.742;38.866;2022-11-14T09:52:16;100290.0;;;0.9;75.4
28456;BME280;15682;56.742;38.866;2022-11-14T09:54:17;100290.0;;;0.9;74.8
28456;BME280;15682;56.742;38.866;2022-11-14T09:56:11;100290.0;;;0.9;75.3
28456;BME280;15682;56.742;38.866;2022-11-14T09:58:13;100290.0;;;1.0;75.1
28456;BME280;15682;56.742;38.866;2022-11-14T10:00:14;100280.0;;;1.0;75.1
28456;BME280;15682;56.742;38.866;2022-11-14T10:02:22;100280.0;;;1.2;74.4
28456;BME280;15682;56.742;38.866;2022-11-14T10:04:16;100280.0;;;1.2;73.8
28456;BME280;15682;56.742;38.866;2022-11-14T10:06:17;100280.0;;;1.2;73.8
28456;BME280;15682;56.742;38.866;2022-11-14T10:08:19;100280.0;;;1.3;73.9
28456;BME280;15682;56.742;38.866;2022-11-14T10:10:16;100280.0;;;1.3;73.9
28456;BME280;15682;56.742;38.866;2022-11-14T10:12:13;100280.0;;;1.3;73.9
28456;BME280;15682;56.742;38.866;2022-11-14T10:14:27;100280.0;;;1.2;72.2
28456;BME280;15682;56.742;38.866;2022-11-14T10:16:13;100280.0;;;1.2;72.8
28456;BME280;15682;56.742;38.866;2022-11-14T10:18:16;100280.0;;;1.2;72.4
28456;BME280;15682;56.742;38.866;2022-11-14T10:20:14;100280.0;;;1.2;72.1
28456;BME280;15682;56.742;38.866;2022-11-14T10:22:19;100270.0;;;1.2;72.1
28456;BME280;15682;56.742;38.866;2022-11-14T10:24:19;100270.0;;;1.3;72.1
28456;BME280;15682;56.742;38.866;2022-11-14T10:26:13;100270.0;;;1.5;72.1
28456;BME280;15682;56.742;38.866;2022-11-14T10:28:24;100270.0;;;1.6;71.7
28456;BME280;15682;56.742;38.866;2022-11-14T10:30:10;100270.0;;;1.5;71.5
28456;BME280;15682;56.742;38.866;2022-11-14T10:32:15;100270.0;;;1.6;72.1
28456;BME280;15682;56.742;38.866;2022-11-14T10:34:11;100270.0;;;1.6;71.2
28456;BME280;15682;56.742;38.866;2022-11-14T10:36:14;100270.0;;;1.7;71.9
28456;BME280;15682;56.742;38.866;2022-11-14T10:38:12;100270.0;;;1.8;72.4
28456;BME280;15682;56.742;38.866;2022-11-14T10:40:15;100270.0;;;1.8;72.4
28456;BME280;15682;56.742;38.866;2022-11-14T10:42:12;100270.0;;;1.8;72.4
28456;BME280;15682;56.742;38.866;2022-11-14T10:44:10;100270.0;;;1.8;71.1
28456;BME280;15682;56.742;38.866;2022-11-14T10:46:11;100270.0;;;1.8;72.2
28456;BME280;15682;56.742;38.866;2022-11-14T10:48:11;100270.0;;;1.7;71.7
28456;BME280;15682;56.742;38.866;2022-11-14T10:50:16;100270.0;;;1.7;71.2